createdAt,value
2023-04-29T00:00:15.912Z,85.37
2023-04-29T00:02:42.972Z,85.39
2023-04-29T00:05:10.548Z,85.21
2023-04-29T00:07:37.519Z,85.30
2023-04-29T00:10:04.612Z,85.34
2023-04-29T00:12:32.507Z,84.89
2023-04-29T00:15:00.825Z,84.31
2023-04-29T00:17:28.224Z,84.14
2023-04-29T00:19:54.956Z,84.39
2023-04-29T00:22:22.780Z,84.72
2023-04-29T00:24:49.390Z,84.73
2023-04-29T00:27:16.917Z,84.57
2023-04-29T00:29:43.838Z,84.70
2023-04-29T00:32:10.679Z,85.04
2023-04-29T00:34:37.538Z,85.15
2023-04-29T00:37:04.195Z,85.30
2023-04-29T00:39:30.877Z,85.53
2023-04-29T00:41:57.694Z,85.40
2023-04-29T00:44:24.733Z,85.58
2023-04-29T00:46:51.435Z,85.73
2023-04-29T00:49:18.197Z,85.56
2023-04-29T00:51:45.355Z,85.38
2023-04-29T00:54:13.033Z,85.35
2023-04-29T00:56:43.294Z,85.49
2023-04-29T00:59:10.299Z,85.76
2023-04-29T01:01:37.634Z,86.05
2023-04-29T01:04:05.717Z,85.92
2023-04-29T01:07:03.129Z,86.07
2023-04-29T01:09:41.348Z,86.00
2023-04-29T01:12:20.544Z,86.13
2023-04-29T01:15:02.626Z,86.14
2023-04-29T01:17:36.242Z,86.16
2023-04-29T01:20:04.817Z,85.89
2023-04-29T01:22:31.698Z,86.10
2023-04-29T01:24:58.345Z,86.05
2023-04-29T01:27:37.281Z,86.20
2023-04-29T01:30:10.016Z,86.27
2023-04-29T01:33:18.226Z,86.70
2023-04-29T01:36:00.802Z,86.31
2023-04-29T01:38:40.224Z,86.43
2023-04-29T01:41:09.762Z,86.23
2023-04-29T01:43:37.938Z,86.26
2023-04-29T01:46:09.801Z,86.35
2023-04-29T01:48:37.475Z,86.25
2023-04-29T01:51:06.507Z,86.56
2023-04-29T01:53:33.621Z,86.69
2023-04-29T01:56:00.418Z,86.59
2023-04-29T01:58:28.206Z,86.98
2023-04-29T02:00:55.664Z,86.96
2023-04-29T02:03:22.431Z,86.83
2023-04-29T02:05:50.573Z,86.82
2023-04-29T02:08:18.195Z,86.68
2023-04-29T02:10:54.064Z,87.13
2023-04-29T02:13:20.997Z,86.93
2023-04-29T02:15:48.136Z,86.89
2023-04-29T02:18:14.808Z,86.51
2023-04-29T02:20:41.830Z,86.59
2023-04-29T02:23:08.608Z,86.69
2023-04-29T02:25:35.233Z,86.59
2023-04-29T02:28:02.173Z,86.68
2023-04-29T02:30:30.355Z,86.67
2023-04-29T02:32:57.341Z,86.54
2023-04-29T02:35:24.060Z,86.96
2023-04-29T02:37:50.725Z,87.15
2023-04-29T02:40:18.534Z,87.20
2023-04-29T02:42:45.177Z,87.47
2023-04-29T02:45:12.136Z,87.68
2023-04-29T02:47:38.814Z,87.90
2023-04-29T02:50:06.260Z,87.78
2023-04-29T02:52:32.934Z,87.97
2023-04-29T02:55:03.174Z,87.75
2023-04-29T02:57:30.601Z,87.97
2023-04-29T02:59:57.487Z,88.00
2023-04-29T03:02:24.301Z,88.07
2023-04-29T03:04:51.207Z,87.90
2023-04-29T03:07:18.166Z,87.83
2023-04-29T03:09:44.909Z,88.16
2023-04-29T03:12:11.738Z,88.19
2023-04-29T03:14:38.652Z,88.43
2023-04-29T03:17:05.381Z,88.42
2023-04-29T03:19:32.199Z,88.33
2023-04-29T03:21:58.899Z,88.52
2023-04-29T03:24:25.587Z,88.39
2023-04-29T03:26:52.194Z,88.48
2023-04-29T03:29:18.829Z,88.40
2023-04-29T03:31:45.788Z,88.00
2023-04-29T03:34:14.512Z,88.23
2023-04-29T03:36:41.130Z,88.28
2023-04-29T03:39:07.797Z,88.16
2023-04-29T03:41:34.426Z,88.16
2023-04-29T03:44:01.198Z,88.27
2023-04-29T03:46:28.239Z,88.36
2023-04-29T03:48:58.051Z,88.56
2023-04-29T03:51:25.420Z,88.61
2023-04-29T03:53:54.713Z,88.62
2023-04-29T03:56:21.334Z,88.29
2023-04-29T03:58:48.060Z,88.50
2023-04-29T04:01:15.466Z,88.65
2023-04-29T04:03:43.527Z,88.78
2023-04-29T04:06:10.324Z,88.85
2023-04-29T04:08:36.986Z,88.96
2023-04-29T04:11:04.662Z,89.48
2023-04-29T04:13:31.514Z,89.47
2023-04-29T04:15:58.437Z,89.58
2023-04-29T04:18:25.087Z,89.54
2023-04-29T04:20:51.697Z,89.69
2023-04-29T04:23:18.374Z,89.89
2023-04-29T04:25:49.173Z,89.83
2023-04-29T04:28:15.923Z,89.98
2023-04-29T04:30:43.060Z,90.00
2023-04-29T04:33:10.765Z,90.20
2023-04-29T04:35:37.558Z,90.33
2023-04-29T04:38:04.352Z,90.36
2023-04-29T04:40:30.962Z,90.58
2023-04-29T04:42:57.649Z,90.79
2023-04-29T04:45:24.380Z,90.73
2023-04-29T04:47:51.096Z,90.68
2023-04-29T04:50:17.851Z,90.77
2023-04-29T04:52:44.489Z,90.83
2023-04-29T04:55:13.845Z,91.14
2023-04-29T04:57:42.839Z,91.05
2023-04-29T05:00:10.164Z,91.20
2023-04-29T05:02:37.096Z,91.23
2023-04-29T05:05:04.032Z,91.12
2023-04-29T05:07:30.709Z,91.26
2023-04-29T05:09:57.869Z,91.23
2023-04-29T05:12:26.758Z,91.53
2023-04-29T05:14:53.781Z,91.60
2023-04-29T05:17:20.413Z,91.66
2023-04-29T05:19:47.051Z,91.68
2023-04-29T05:22:13.764Z,91.96
2023-04-29T05:24:40.397Z,92.00
2023-04-29T05:27:09.331Z,91.90
2023-04-29T05:29:36.020Z,91.82
2023-04-29T05:32:02.844Z,91.95
2023-04-29T05:34:29.545Z,92.19
2023-04-29T05:36:57.424Z,92.24
2023-04-29T05:39:25.021Z,92.36
2023-04-29T05:41:51.696Z,92.27
2023-04-29T05:44:18.442Z,92.37
2023-04-29T05:46:46.282Z,92.26
2023-04-29T05:49:12.950Z,92.34
2023-04-29T05:51:42.458Z,92.57
2023-04-29T05:54:09.100Z,92.45
2023-04-29T05:56:36.011Z,92.67
2023-04-29T05:59:02.654Z,92.68
2023-04-29T06:01:29.350Z,92.92
2023-04-29T06:03:56.734Z,93.10
2023-04-29T06:06:23.731Z,93.21
2023-04-29T06:08:50.507Z,93.45
2023-04-29T06:11:17.186Z,93.68
2023-04-29T06:13:43.909Z,94.02
2023-04-29T06:16:12.048Z,94.42
2023-04-29T06:18:38.835Z,94.45
2023-04-29T06:21:08.331Z,94.70
2023-04-29T06:23:34.991Z,95.02
2023-04-29T06:26:01.875Z,95.27
2023-04-29T06:28:29.914Z,95.54
2023-04-29T06:30:57.017Z,95.63
2023-04-29T06:33:23.906Z,96.05
2023-04-29T06:35:50.570Z,96.23
2023-04-29T06:38:17.230Z,96.43
2023-04-29T06:40:43.846Z,96.61
2023-04-29T06:43:10.781Z,96.70
2023-04-29T06:45:37.588Z,96.85
2023-04-29T06:48:04.624Z,96.91
2023-04-29T06:50:31.672Z,97.12
2023-04-29T06:52:59.575Z,96.97
2023-04-29T06:55:26.404Z,97.23
2023-04-29T06:57:53.125Z,97.20
2023-04-29T07:00:21.190Z,97.40
2023-04-29T07:02:50.708Z,97.41
2023-04-29T07:05:17.607Z,97.40
2023-04-29T07:07:45.310Z,97.56
2023-04-29T07:10:12.113Z,97.71
2023-04-29T07:12:38.934Z,97.65
2023-04-29T07:15:06.217Z,98.05
2023-04-29T07:17:33.005Z,98.08
2023-04-29T07:19:59.639Z,97.89
2023-04-29T07:22:26.505Z,98.20
2023-04-29T07:24:55.016Z,97.82
2023-04-29T07:27:21.810Z,97.85
2023-04-29T07:29:48.563Z,98.18
2023-04-29T07:32:15.944Z,98.22
2023-04-29T07:34:43.600Z,98.29
2023-04-29T07:37:10.246Z,98.41
2023-04-29T07:39:37.301Z,98.14
2023-04-29T07:42:04.652Z,98.12
2023-04-29T07:44:32.331Z,98.35
2023-04-29T07:46:58.945Z,98.38
2023-04-29T07:49:26.320Z,98.51
2023-04-29T07:51:52.981Z,98.47
2023-04-29T07:54:19.788Z,98.31
2023-04-29T07:56:46.731Z,98.26
2023-04-29T07:59:13.554Z,98.46
2023-04-29T08:01:43.550Z,98.46
2023-04-29T08:04:11.167Z,98.64
2023-04-29T08:06:38.294Z,98.70
2023-04-29T08:09:05.189Z,98.58
2023-04-29T08:11:32.034Z,98.64
2023-04-29T08:14:00.229Z,98.41
2023-04-29T08:16:27.173Z,98.51
2023-04-29T08:18:54.410Z,98.74
2023-04-29T08:21:21.309Z,98.46
2023-04-29T08:23:48.029Z,98.36
2023-04-29T08:26:14.721Z,98.34
2023-04-29T08:28:41.541Z,98.64
2023-04-29T08:31:08.346Z,98.58
2023-04-29T08:33:35.405Z,98.30
2023-04-29T08:36:03.870Z,98.51
2023-04-29T08:38:31.181Z,98.36
2023-04-29T08:40:58.529Z,98.32
2023-04-29T08:43:26.523Z,98.41
2023-04-29T08:45:53.724Z,98.38
2023-04-29T08:48:21.377Z,98.46
2023-04-29T08:50:48.039Z,98.46
2023-04-29T08:53:14.913Z,98.42
2023-04-29T08:55:46.326Z,98.27
2023-04-29T08:58:14.984Z,98.20
2023-04-29T09:00:45.137Z,98.11
2023-04-29T09:03:27.698Z,98.23
2023-04-29T09:05:56.344Z,98.20
2023-04-29T09:08:24.376Z,98.12
2023-04-29T09:10:54.382Z,97.94
2023-04-29T09:13:24.430Z,98.12
2023-04-29T09:15:51.242Z,98.14
2023-04-29T09:18:50.551Z,97.95
2023-04-29T09:21:22.849Z,97.66
2023-04-29T09:23:52.488Z,97.14
2023-04-29T09:26:19.722Z,97.09
2023-04-29T09:28:47.869Z,97.12
2023-04-29T09:31:28.084Z,97.13
2023-04-29T09:33:57.191Z,95.52
2023-04-29T09:36:42.421Z,94.15
2023-04-29T09:39:15.405Z,93.19
2023-04-29T09:41:43.636Z,93.06
2023-04-29T09:44:11.297Z,92.29
2023-04-29T09:46:38.702Z,92.19
2023-04-29T09:49:23.993Z,91.92
2023-04-29T09:51:55.125Z,90.64
2023-04-29T09:54:28.509Z,87.88
2023-04-29T09:56:56.511Z,85.67
2023-04-29T09:59:24.442Z,85.07
2023-04-29T10:01:53.803Z,84.55
2023-04-29T10:04:24.404Z,84.71
2023-04-29T10:06:53.114Z,83.28
2023-04-29T10:09:21.066Z,83.17
2023-04-29T10:11:51.142Z,82.70
2023-04-29T10:14:19.992Z,82.32
2023-04-29T10:16:54.627Z,82.84
2023-04-29T10:19:36.014Z,82.20
2023-04-29T10:22:10.176Z,78.31
2023-04-29T10:24:37.985Z,75.87
2023-04-29T10:27:07.719Z,72.91
2023-04-29T10:29:37.201Z,72.10
2023-04-29T10:32:07.735Z,71.86
2023-04-29T10:34:37.254Z,72.63
2023-04-29T10:37:04.752Z,73.85
2023-04-29T10:39:39.912Z,74.58
2023-04-29T10:42:21.219Z,74.99
2023-04-29T10:45:20.129Z,75.16
2023-04-29T10:48:06.248Z,75.15
2023-04-29T10:50:36.691Z,74.90
2023-04-29T10:53:04.816Z,74.61
2023-04-29T10:55:32.209Z,74.88
2023-04-29T10:57:58.881Z,75.10
2023-04-29T11:00:30.668Z,75.86
2023-04-29T11:02:59.735Z,76.00
2023-04-29T11:05:37.347Z,76.32
2023-04-29T11:08:24.068Z,76.69
2023-04-29T11:10:54.445Z,76.91
2023-04-29T11:13:31.797Z,77.27
2023-04-29T11:16:12.091Z,77.28
2023-04-29T11:19:03.842Z,77.02
2023-04-29T11:21:32.635Z,77.32
2023-04-29T11:24:01.196Z,77.06
2023-04-29T11:26:28.012Z,76.76
2023-04-29T11:28:54.715Z,76.65
2023-04-29T11:31:21.614Z,76.85
2023-04-29T11:33:49.316Z,76.78
2023-04-29T11:36:16.018Z,76.54
2023-04-29T11:38:43.351Z,76.31
2023-04-29T11:41:11.837Z,76.24
2023-04-29T11:43:39.961Z,76.55
2023-04-29T11:46:13.837Z,76.48
2023-04-29T11:48:50.294Z,75.98
2023-04-29T11:51:19.144Z,75.93
2023-04-29T11:53:46.319Z,76.06
2023-04-29T11:56:13.294Z,75.91
2023-04-29T11:58:42.052Z,75.96
2023-04-29T12:01:08.797Z,75.42
2023-04-29T12:03:36.775Z,75.48
2023-04-29T12:06:03.943Z,75.51
2023-04-29T12:08:34.820Z,75.38
2023-04-29T12:11:01.844Z,75.31
2023-04-29T12:13:31.621Z,75.45
2023-04-29T12:15:59.119Z,75.32
2023-04-29T12:18:27.768Z,74.88
2023-04-29T12:20:58.455Z,74.83
2023-04-29T12:23:28.459Z,74.85
2023-04-29T12:25:57.189Z,74.58
2023-04-29T12:28:24.425Z,74.88
2023-04-29T12:30:53.984Z,74.53
2023-04-29T12:33:27.255Z,73.80
2023-04-29T12:35:59.431Z,74.12
2023-04-29T12:38:32.566Z,74.31
2023-04-29T12:41:02.131Z,73.72
2023-04-29T12:43:30.183Z,73.44
2023-04-29T12:46:04.548Z,73.27
2023-04-29T12:48:33.374Z,73.19
2023-04-29T12:51:01.433Z,73.11
2023-04-29T12:53:30.378Z,72.99
2023-04-29T12:55:57.745Z,72.44
2023-04-29T12:58:24.562Z,71.95
2023-04-29T13:00:51.655Z,72.29
2023-04-29T13:03:22.024Z,72.21
2023-04-29T13:05:52.641Z,71.64
2023-04-29T13:08:19.840Z,71.62
2023-04-29T13:10:49.671Z,71.26
2023-04-29T13:13:16.407Z,71.43
2023-04-29T13:15:43.057Z,70.68
2023-04-29T13:18:09.746Z,70.39
2023-04-29T13:20:41.608Z,70.23
2023-04-29T13:23:09.687Z,70.10
2023-04-29T13:25:36.535Z,69.29
2023-04-29T13:28:05.582Z,68.96
2023-04-29T13:30:33.288Z,69.20
2023-04-29T13:33:08.466Z,68.97
2023-04-29T13:35:40.344Z,68.66
2023-04-29T13:38:08.504Z,68.72
2023-04-29T13:40:39.249Z,68.22
2023-04-29T13:43:09.800Z,68.38
2023-04-29T13:45:41.154Z,68.21
2023-04-29T13:48:22.871Z,67.96
2023-04-29T13:51:34.324Z,67.46
2023-04-29T13:54:41.165Z,67.72
2023-04-29T13:57:26.667Z,67.80
2023-04-29T14:04:19.813Z,67.23
2023-04-29T14:06:46.491Z,67.07
2023-04-29T14:09:13.259Z,66.55
2023-04-29T14:11:40.010Z,66.39
2023-04-29T14:14:06.644Z,65.75
2023-04-29T14:16:33.408Z,66.08
2023-04-29T14:19:01.978Z,65.24
2023-04-29T14:21:32.005Z,64.79
2023-04-29T14:23:59.576Z,64.85
2023-04-29T14:26:28.671Z,63.95
2023-04-29T14:28:59.739Z,63.83
2023-04-29T14:31:28.454Z,62.98
2023-04-29T14:33:57.429Z,63.13
2023-04-29T14:36:25.074Z,63.40
2023-04-29T14:38:51.870Z,63.10
2023-04-29T14:41:18.667Z,62.52
2023-04-29T14:43:45.978Z,61.99
2023-04-29T14:46:12.905Z,62.07
2023-04-29T14:48:39.721Z,61.81
2023-04-29T14:51:06.579Z,61.83
2023-04-29T14:53:33.932Z,62.15
2023-04-29T14:56:01.145Z,62.83
2023-04-29T14:58:28.222Z,63.58
2023-04-29T15:00:54.979Z,64.52
2023-04-29T15:03:23.239Z,65.23
2023-04-29T15:05:51.501Z,65.27
2023-04-29T15:08:19.192Z,65.29
2023-04-29T15:10:47.750Z,66.13
2023-04-29T15:13:14.786Z,66.52
2023-04-29T15:15:41.937Z,67.09
2023-04-29T15:18:09.287Z,66.70
2023-04-29T15:20:37.049Z,67.00
2023-04-29T15:23:05.528Z,67.01
2023-04-29T15:25:34.718Z,66.98
2023-04-29T15:28:04.898Z,67.21
2023-04-29T15:30:32.339Z,67.32
2023-04-29T15:32:59.838Z,67.54
2023-04-29T15:35:26.771Z,67.97
2023-04-29T15:37:53.782Z,68.46
2023-04-29T15:40:20.420Z,68.64
2023-04-29T15:42:47.165Z,68.36
2023-04-29T15:45:14.036Z,68.13
2023-04-29T15:47:40.886Z,68.38
2023-04-29T15:50:09.636Z,68.49
2023-04-29T15:52:36.956Z,68.64
2023-04-29T15:55:07.240Z,68.52
2023-04-29T15:57:34.885Z,67.96
2023-04-29T16:00:01.766Z,67.44
2023-04-29T16:02:28.469Z,67.30
2023-04-29T16:04:55.163Z,66.82
2023-04-29T16:07:21.988Z,66.49
2023-04-29T16:09:48.622Z,66.44
2023-04-29T16:12:15.393Z,65.92
2023-04-29T16:14:41.952Z,65.76
2023-04-29T16:17:08.642Z,65.72
2023-04-29T16:19:37.081Z,65.91
2023-04-29T16:22:04.707Z,65.34
2023-04-29T16:24:31.525Z,64.08
2023-04-29T16:26:59.124Z,63.94
2023-04-29T16:29:26.128Z,63.77
2023-04-29T16:31:53.006Z,63.86
2023-04-29T16:34:20.309Z,64.25
2023-04-29T16:36:47.032Z,63.77
2023-04-29T16:39:14.118Z,62.71
2023-04-29T16:41:41.241Z,61.50
2023-04-29T16:44:08.577Z,61.02
2023-04-29T16:46:35.407Z,61.46
2023-04-29T16:49:02.193Z,61.87
2023-04-29T16:51:29.288Z,62.70
2023-04-29T16:53:56.091Z,63.05
2023-04-29T16:56:23.182Z,64.03
2023-04-29T16:58:50.032Z,65.00
2023-04-29T17:01:19.650Z,65.23
2023-04-29T17:03:50.591Z,65.69
2023-04-29T17:06:17.733Z,65.96
2023-04-29T17:08:45.596Z,66.68
2023-04-29T17:11:12.415Z,66.96
2023-04-29T17:13:39.101Z,67.94
2023-04-29T17:16:07.070Z,68.49
2023-04-29T17:18:34.295Z,68.91
2023-04-29T17:21:01.148Z,69.61
2023-04-29T17:23:27.837Z,69.97
2023-04-29T17:25:55.493Z,70.90
2023-04-29T17:28:22.359Z,71.45
2023-04-29T17:30:49.586Z,71.58
2023-04-29T17:33:17.540Z,72.09
2023-04-29T17:35:46.283Z,72.21
2023-04-29T17:38:13.158Z,72.89
2023-04-29T17:40:39.798Z,73.29
2023-04-29T17:43:06.496Z,73.96
2023-04-29T17:45:33.368Z,74.61
2023-04-29T17:48:00.270Z,75.12
2023-04-29T17:50:27.022Z,75.92
2023-04-29T17:52:57.189Z,76.51
2023-04-29T17:55:23.847Z,76.79
2023-04-29T17:57:50.498Z,77.27
2023-04-29T18:00:18.254Z,77.62
2023-04-29T18:02:44.965Z,78.07
2023-04-29T18:05:11.758Z,77.78
2023-04-29T18:07:38.396Z,77.54
2023-04-29T18:10:06.078Z,77.29
2023-04-29T18:12:33.172Z,77.49
2023-04-29T18:15:01.781Z,77.95
2023-04-29T18:17:28.503Z,78.39
2023-04-29T18:19:56.452Z,78.82
2023-04-29T18:22:23.407Z,78.69
2023-04-29T18:24:50.085Z,79.07
2023-04-29T18:27:17.836Z,79.24
2023-04-29T18:29:45.874Z,79.62
2023-04-29T18:32:12.655Z,79.94
2023-04-29T18:34:39.416Z,80.33
2023-04-29T18:37:06.056Z,80.55
2023-04-29T18:39:32.770Z,80.72
2023-04-29T18:41:59.429Z,81.05
2023-04-29T18:44:26.315Z,81.09
2023-04-29T18:46:54.614Z,81.27
2023-04-29T18:49:21.252Z,81.39
2023-04-29T18:51:47.926Z,81.11
2023-04-29T18:54:16.730Z,81.47
2023-04-29T18:56:46.665Z,81.79
2023-04-29T18:59:19.010Z,81.77
2023-04-29T19:01:47.337Z,82.09
2023-04-29T19:04:14.522Z,81.82
2023-04-29T19:06:42.369Z,82.00
2023-04-29T19:09:09.370Z,82.15
2023-04-29T19:11:36.289Z,82.66
2023-04-29T19:14:05.980Z,83.14
2023-04-29T19:16:39.822Z,83.24
2023-04-29T19:19:06.840Z,83.34
2023-04-29T19:21:33.753Z,83.28
2023-04-29T19:24:00.642Z,83.51
2023-04-29T19:26:27.350Z,83.66
2023-04-29T19:28:54.273Z,84.02
2023-04-29T19:31:21.673Z,83.81
2023-04-29T19:33:48.547Z,83.97
2023-04-29T19:36:15.245Z,84.36
2023-04-29T19:38:41.926Z,84.85
2023-04-29T19:41:08.816Z,84.94
2023-04-29T19:43:36.149Z,84.96
2023-04-29T19:46:02.957Z,85.04
2023-04-29T19:48:29.649Z,85.15
2023-04-29T19:50:59.579Z,85.17
2023-04-29T19:53:27.094Z,85.26
2023-04-29T19:55:54.268Z,85.47
2023-04-29T19:58:20.984Z,85.57
2023-04-29T20:00:48.198Z,85.69
2023-04-29T20:03:15.178Z,85.88
2023-04-29T20:05:42.042Z,86.09
2023-04-29T20:08:08.873Z,86.29
2023-04-29T20:10:35.518Z,86.19
2023-04-29T20:13:02.154Z,86.20
2023-04-29T20:15:28.815Z,86.41
2023-04-29T20:17:56.077Z,86.65
2023-04-29T20:20:24.291Z,86.64
2023-04-29T20:22:51.090Z,86.96
2023-04-29T20:25:18.352Z,86.70
2023-04-29T20:27:45.082Z,86.63
2023-04-29T20:30:11.955Z,86.68
2023-04-29T20:32:38.858Z,87.08
2023-04-29T20:35:05.890Z,87.18
2023-04-29T20:37:32.516Z,87.41
2023-04-29T20:39:59.769Z,87.33
2023-04-29T20:42:27.032Z,87.31
2023-04-29T20:44:53.634Z,87.22
2023-04-29T20:47:20.681Z,87.25
2023-04-29T20:49:47.310Z,87.12
2023-04-29T20:52:13.992Z,87.05
2023-04-29T20:54:40.728Z,87.29
2023-04-29T20:57:07.328Z,87.26
2023-04-29T20:59:34.522Z,87.13
2023-04-29T21:02:01.491Z,87.61
2023-04-29T21:04:28.362Z,87.86
2023-04-29T21:06:55.158Z,88.17
2023-04-29T21:09:22.161Z,87.96
2023-04-29T21:11:48.809Z,88.10
2023-04-29T21:14:15.521Z,88.07
2023-04-29T21:16:42.687Z,87.96
2023-04-29T21:19:09.505Z,87.88
2023-04-29T21:21:36.118Z,87.79
2023-04-29T21:24:03.083Z,88.16
2023-04-29T21:26:29.808Z,88.42
2023-04-29T21:28:56.449Z,88.60
2023-04-29T21:31:23.144Z,88.52
2023-04-29T21:33:49.855Z,88.38
2023-04-29T21:36:18.077Z,88.32
2023-04-29T21:38:45.090Z,88.73
2023-04-29T21:41:26.626Z,88.93
2023-04-29T21:43:59.413Z,88.77
2023-04-29T21:46:29.152Z,88.76
2023-04-29T21:48:57.841Z,89.01
2023-04-29T21:51:24.946Z,89.03
2023-04-29T21:53:51.612Z,88.96
2023-04-29T21:56:18.335Z,88.47
2023-04-29T21:58:45.425Z,88.58
2023-04-29T22:01:39.834Z,88.56
2023-04-29T22:04:06.903Z,88.75
2023-04-29T22:06:36.197Z,88.87
2023-04-29T22:09:03.283Z,88.77
2023-04-29T22:11:30.296Z,88.83
2023-04-29T22:13:57.166Z,88.81
2023-04-29T22:16:24.027Z,88.62
2023-04-29T22:18:51.348Z,88.68
2023-04-29T22:21:18.983Z,88.65
2023-04-29T22:23:45.736Z,88.69
2023-04-29T22:26:12.390Z,88.89
2023-04-29T22:28:39.274Z,89.23
2023-04-29T22:31:06.600Z,89.05
2023-04-29T22:33:34.646Z,89.20
2023-04-29T22:36:01.404Z,89.24
2023-04-29T22:38:29.417Z,89.18
2023-04-29T22:40:56.109Z,89.20
2023-04-29T22:43:22.729Z,89.33
2023-04-29T22:45:56.955Z,89.31
2023-04-29T22:48:26.645Z,89.19
2023-04-29T22:50:56.762Z,89.45
2023-04-29T22:53:24.967Z,89.39
2023-04-29T22:55:55.907Z,89.42
2023-04-29T22:58:25.356Z,89.54
2023-04-29T23:00:54.909Z,89.37
2023-04-29T23:03:21.683Z,89.24
2023-04-29T23:05:48.861Z,89.41
2023-04-29T23:08:15.736Z,88.92
2023-04-29T23:10:48.530Z,88.95
2023-04-29T23:13:15.858Z,89.37
2023-04-29T23:15:42.763Z,89.27
2023-04-29T23:18:09.551Z,89.18
2023-04-29T23:20:36.163Z,89.16
2023-04-29T23:23:02.951Z,89.20
2023-04-29T23:25:29.573Z,89.29
2023-04-29T23:27:56.268Z,89.41
2023-04-29T23:30:22.924Z,89.83
2023-04-29T23:32:49.681Z,89.70
2023-04-29T23:35:16.451Z,90.11
2023-04-29T23:37:43.082Z,90.05
2023-04-29T23:40:10.133Z,90.26
2023-04-29T23:42:39.788Z,90.48
2023-04-29T23:45:07.421Z,90.42
2023-04-29T23:47:36.595Z,90.16
2023-04-29T23:50:04.147Z,90.21
2023-04-29T23:52:30.870Z,90.10
2023-04-29T23:54:58.364Z,90.12
2023-04-29T23:57:24.975Z,90.04
2023-04-29T23:59:53.035Z,89.90
